<?xml version="1.0" encoding="UTF-8" standalone="yes"?>
<gpx xmlns="http://www.topografix.com/GPX/1/1" xmlns:gpxx="http://www.garmin.com/xmlschemas/GpxExtensions/v3" xmlns:rcxx="http://www.routeconverter.de/xmlschemas/RouteCatalogExtensions/1.0" version="1.1" creator="Generated by Christian Pesch's RouteConverter. See http://www.routeconverter.de">
    <trk>
        <name>GR01Track500</name>
        <trkseg>
            <trkpt lon="12.979295253753662" lat="49.0490251775185">
                <ele>511.5587158</ele>
                <time>2008-07-12T16:17:23.000Z</time>
                <name>Position 1</name>
            </trkpt>
            <trkpt lon="12.97936499118805" lat="49.04896189110854">
                <ele>509.1553955</ele>
                <time>2008-07-12T16:17:37.000Z</time>
                <name>Position 2</name>
            </trkpt>
            <trkpt lon="12.9795089" lat="49.0488682">
                <ele>510.59729</ele>
                <time>2008-07-12T16:17:49.000Z</time>
                <name>Position 3</name>
            </trkpt>
            <trkpt lon="12.979649305343628" lat="49.04877203139531">
                <ele>510.1166992</ele>
                <time>2008-07-12T16:17:59.000Z</time>
                <name>Position 4</name>
            </trkpt>
            <trkpt lon="12.979772686958313" lat="49.04868061720073">
                <ele>513.0007324</ele>
                <time>2008-07-12T16:18:14.000Z</time>
                <name>Position 5</name>
            </trkpt>
            <trkpt lon="12.979906797409058" lat="49.048564591250226">
                <ele>514.442627</ele>
                <time>2008-07-12T16:18:24.000Z</time>
                <name>Position 6</name>
            </trkpt>
            <trkpt lon="12.980030179023743" lat="49.04845208097902">
                <ele>515.4040527</ele>
                <time>2008-07-12T16:18:33.000Z</time>
                <name>Position 7</name>
            </trkpt>
            <trkpt lon="12.980222" lat="49.0485497">
                <ele>516.8459473</ele>
                <time>2008-07-12T16:18:48.000Z</time>
                <name>Position 8</name>
            </trkpt>
            <trkpt lon="12.980326" lat="49.048621">
                <ele>518.2878418</ele>
                <time>2008-07-12T16:18:58.000Z</time>
                <name>Position 9</name>
            </trkpt>
            <trkpt lon="12.9804852" lat="49.048717">
                <ele>519.7298584</ele>
                <time>2008-07-12T16:19:12.000Z</time>
                <name>Position 10</name>
            </trkpt>
            <trkpt lon="12.9806242" lat="49.0488384">
                <ele>520.6912842</ele>
                <time>2008-07-12T16:19:28.000Z</time>
                <name>Position 11</name>
            </trkpt>
            <trkpt lon="12.9806949" lat="49.0489319">
                <ele>521.1719971</ele>
                <time>2008-07-12T16:19:39.000Z</time>
                <name>Position 12</name>
            </trkpt>
            <trkpt lon="12.9807553" lat="49.0490331">
                <ele>520.6912842</ele>
                <time>2008-07-12T16:19:53.000Z</time>
                <name>Position 13</name>
            </trkpt>
            <trkpt lon="12.9808295" lat="49.0491859">
                <ele>521.1719971</ele>
                <time>2008-07-12T16:20:10.000Z</time>
                <name>Position 14</name>
            </trkpt>
            <trkpt lon="12.9808803" lat="49.0493192">
                <ele>524.0557861</ele>
                <time>2008-07-12T16:20:23.000Z</time>
                <name>Position 15</name>
            </trkpt>
            <trkpt lon="12.9809258" lat="49.0494606">
                <ele>524.536499</ele>
                <time>2008-07-12T16:20:38.000Z</time>
                <name>Position 16</name>
            </trkpt>
            <trkpt lon="12.9809634" lat="49.0495864">
                <ele>523.5751953</ele>
                <time>2008-07-12T16:20:51.000Z</time>
                <name>Position 17</name>
            </trkpt>
            <trkpt lon="12.9810218" lat="49.0497288">
                <ele>524.0557861</ele>
                <time>2008-07-12T16:21:05.000Z</time>
                <name>Position 18</name>
            </trkpt>
            <trkpt lon="12.9811128" lat="49.049878">
                <ele>527.4204102</ele>
                <time>2008-07-12T16:21:20.000Z</time>
                <name>Position 19</name>
            </trkpt>
            <trkpt lon="12.9812382" lat="49.0500301">
                <ele>527.4204102</ele>
                <time>2008-07-12T16:21:36.000Z</time>
                <name>Position 20</name>
            </trkpt>
            <trkpt lon="12.9814268" lat="49.0501753">
                <ele>528.8625488</ele>
                <time>2008-07-12T16:21:52.000Z</time>
                <name>Position 21</name>
            </trkpt>
            <trkpt lon="12.9815958" lat="49.0502722">
                <ele>528.3818359</ele>
                <time>2008-07-12T16:22:05.000Z</time>
                <name>Position 22</name>
            </trkpt>
            <trkpt lon="12.9817591" lat="49.0503499">
                <ele>527.901001</ele>
                <time>2008-07-12T16:22:16.000Z</time>
                <name>Position 23</name>
            </trkpt>
            <trkpt lon="12.9819449" lat="49.0504528">
                <ele>528.8625488</ele>
                <time>2008-07-12T16:22:29.000Z</time>
                <name>Position 24</name>
            </trkpt>
            <trkpt lon="12.9821433" lat="49.0505547">
                <ele>529.8237305</ele>
                <time>2008-07-12T16:22:43.000Z</time>
                <name>Position 25</name>
            </trkpt>
            <trkpt lon="12.982282" lat="49.0506369">
                <ele>530.7851563</ele>
                <time>2008-07-12T16:22:53.000Z</time>
                <name>Position 26</name>
            </trkpt>
            <trkpt lon="12.9824363" lat="49.0507199">
                <ele>531.2657471</ele>
                <time>2008-07-12T16:23:06.000Z</time>
                <name>Position 27</name>
            </trkpt>
            <trkpt lon="12.9825761" lat="49.0507884">
                <ele>531.2657471</ele>
                <time>2008-07-12T16:23:17.000Z</time>
                <name>Position 28</name>
            </trkpt>
            <trkpt lon="12.9827841" lat="49.0509047">
                <ele>534.6303711</ele>
                <time>2008-07-12T16:23:34.000Z</time>
                <name>Position 29</name>
            </trkpt>
            <trkpt lon="12.9829139" lat="49.0509823">
                <ele>535.5915527</ele>
                <time>2008-07-12T16:23:46.000Z</time>
                <name>Position 30</name>
            </trkpt>
            <trkpt lon="12.983021" lat="49.0510444">
                <ele>537.0336914</ele>
                <time>2008-07-12T16:23:55.000Z</time>
                <name>Position 31</name>
            </trkpt>
            <trkpt lon="12.983145" lat="49.0511005">
                <ele>538.475708</ele>
                <time>2008-07-12T16:24:05.000Z</time>
                <name>Position 32</name>
            </trkpt>
            <trkpt lon="12.9833126" lat="49.0511617">
                <ele>538.9562988</ele>
                <time>2008-07-12T16:24:17.000Z</time>
                <name>Position 33</name>
            </trkpt>
            <trkpt lon="12.9834499" lat="49.0512065">
                <ele>540.8789063</ele>
                <time>2008-07-12T16:24:27.000Z</time>
                <name>Position 34</name>
            </trkpt>
            <trkpt lon="12.9836116" lat="49.0512553">
                <ele>541.84021</ele>
                <time>2008-07-12T16:24:39.000Z</time>
                <name>Position 35</name>
            </trkpt>
            <trkpt lon="12.9838647" lat="49.0512853">
                <ele>543.2821045</ele>
                <time>2008-07-12T16:24:59.000Z</time>
                <name>Position 36</name>
            </trkpt>
            <trkpt lon="12.9840288" lat="49.0513033">
                <ele>543.2821045</ele>
                <time>2008-07-12T16:25:11.000Z</time>
                <name>Position 37</name>
            </trkpt>
            <trkpt lon="12.984294" lat="49.0513137">
                <ele>546.6468506</ele>
                <time>2008-07-12T16:25:28.000Z</time>
                <name>Position 38</name>
            </trkpt>
            <trkpt lon="12.9845521" lat="49.0513243">
                <ele>552.8952637</ele>
                <time>2008-07-12T16:25:45.000Z</time>
                <name>Position 39</name>
            </trkpt>
            <trkpt lon="12.9847774" lat="49.0513327">
                <ele>558.1828613</ele>
                <time>2008-07-12T16:26:00.000Z</time>
                <name>Position 40</name>
            </trkpt>
            <trkpt lon="12.9849657" lat="49.0513565">
                <ele>558.6633301</ele>
                <time>2008-07-12T16:26:13.000Z</time>
                <name>Position 41</name>
            </trkpt>
            <trkpt lon="12.9851499" lat="49.0514014">
                <ele>559.144043</ele>
                <time>2008-07-12T16:26:27.000Z</time>
                <name>Position 42</name>
            </trkpt>
            <trkpt lon="12.9853589" lat="49.0514558">
                <ele>562.5085449</ele>
                <time>2008-07-12T16:26:42.000Z</time>
                <name>Position 43</name>
            </trkpt>
            <trkpt lon="12.9855815" lat="49.0515596">
                <ele>566.8344727</ele>
                <time>2008-07-12T16:27:01.000Z</time>
                <name>Position 44</name>
            </trkpt>
            <trkpt lon="12.9857574" lat="49.0516748">
                <ele>568.7570801</ele>
                <time>2008-07-12T16:27:17.000Z</time>
                <name>Position 45</name>
            </trkpt>
            <trkpt lon="12.9859067" lat="49.0517593">
                <ele>571.6408691</ele>
                <time>2008-07-12T16:27:30.000Z</time>
                <name>Position 46</name>
            </trkpt>
            <trkpt lon="12.9861901" lat="49.0518838">
                <ele>572.1218262</ele>
                <time>2008-07-12T16:27:53.000Z</time>
                <name>Position 47</name>
            </trkpt>
            <trkpt lon="12.9863568" lat="49.0519687">
                <ele>573.5639648</ele>
                <time>2008-07-12T16:28:08.000Z</time>
                <name>Position 48</name>
            </trkpt>
            <trkpt lon="12.9865666" lat="49.0520718">
                <ele>579.331543</ele>
                <time>2008-07-12T16:28:27.000Z</time>
                <name>Position 49</name>
            </trkpt>
            <trkpt lon="12.9866794" lat="49.0521685">
                <ele>580.7736816</ele>
                <time>2008-07-12T16:28:41.000Z</time>
                <name>Position 50</name>
            </trkpt>
            <trkpt lon="12.9869137" lat="49.0521273">
                <ele>584.6188965</ele>
                <time>2008-07-12T16:29:03.000Z</time>
                <name>Position 51</name>
            </trkpt>
            <trkpt lon="12.9870701" lat="49.0520589">
                <ele>592.7902832</ele>
                <time>2008-07-12T16:29:23.000Z</time>
                <name>Position 52</name>
            </trkpt>
            <trkpt lon="12.9871779" lat="49.0519873">
                <ele>597.5966797</ele>
                <time>2008-07-12T16:29:38.000Z</time>
                <name>Position 53</name>
            </trkpt>
            <trkpt lon="12.9872897" lat="49.0519271">
                <ele>601.9226074</ele>
                <time>2008-07-12T16:29:49.000Z</time>
                <name>Position 54</name>
            </trkpt>
            <trkpt lon="12.9874667" lat="49.0518309">
                <ele>607.6906738</ele>
                <time>2008-07-12T16:30:09.000Z</time>
                <name>Position 55</name>
            </trkpt>
            <trkpt lon="12.9875917" lat="49.0517168">
                <ele>608.1713867</ele>
                <time>2008-07-12T16:30:28.000Z</time>
                <name>Position 56</name>
            </trkpt>
            <trkpt lon="12.9877909" lat="49.0516045">
                <ele>617.3037109</ele>
                <time>2008-07-12T16:30:56.000Z</time>
                <name>Position 57</name>
            </trkpt>
            <trkpt lon="12.9879072" lat="49.0514709">
                <ele>623.5524902</ele>
                <time>2008-07-12T16:31:16.000Z</time>
                <name>Position 58</name>
            </trkpt>
            <trkpt lon="12.9879636" lat="49.0513548">
                <ele>630.762207</ele>
                <time>2008-07-12T16:31:29.000Z</time>
                <name>Position 59</name>
            </trkpt>
            <trkpt lon="12.988067" lat="49.0512564">
                <ele>635.0881348</ele>
                <time>2008-07-12T16:31:43.000Z</time>
                <name>Position 60</name>
            </trkpt>
            <trkpt lon="12.9882074" lat="49.0511696">
                <ele>637.0107422</ele>
                <time>2008-07-12T16:31:56.000Z</time>
                <name>Position 61</name>
            </trkpt>
            <trkpt lon="12.9884024" lat="49.0510853">
                <ele>642.2980957</ele>
                <time>2008-07-12T16:32:12.000Z</time>
                <name>Position 62</name>
            </trkpt>
            <trkpt lon="12.9886501" lat="49.0510338">
                <ele>645.6625977</ele>
                <time>2008-07-12T16:32:34.000Z</time>
                <name>Position 63</name>
            </trkpt>
            <trkpt lon="12.9887775" lat="49.050976">
                <ele>646.6240234</ele>
                <time>2008-07-12T16:32:44.000Z</time>
                <name>Position 64</name>
            </trkpt>
            <trkpt lon="12.9891882" lat="49.0509326">
                <ele>636.0495605</ele>
                <time>2008-07-12T16:36:01.000Z</time>
                <name>Position 65</name>
            </trkpt>
            <trkpt lon="12.9890726" lat="49.0510133">
                <ele>640.3754883</ele>
                <time>2008-07-12T16:36:13.000Z</time>
                <name>Position 66</name>
            </trkpt>
            <trkpt lon="12.9889528" lat="49.0510798">
                <ele>642.2980957</ele>
                <time>2008-07-12T16:36:22.000Z</time>
                <name>Position 67</name>
            </trkpt>
            <trkpt lon="12.9889008" lat="49.0512355">
                <ele>646.6240234</ele>
                <time>2008-07-12T16:36:40.000Z</time>
                <name>Position 68</name>
            </trkpt>
            <trkpt lon="12.9888619" lat="49.0513269">
                <ele>646.1433105</ele>
                <time>2008-07-12T16:36:50.000Z</time>
                <name>Position 69</name>
            </trkpt>
            <trkpt lon="12.9888201" lat="49.0514954">
                <ele>641.8173828</ele>
                <time>2008-07-12T16:37:06.000Z</time>
                <name>Position 70</name>
            </trkpt>
            <trkpt lon="12.9887806" lat="49.0515816">
                <ele>640.855957</ele>
                <time>2008-07-12T16:37:16.000Z</time>
                <name>Position 71</name>
            </trkpt>
            <trkpt lon="12.9887313" lat="49.0517176">
                <ele>641.3366699</ele>
                <time>2008-07-12T16:37:28.000Z</time>
                <name>Position 72</name>
            </trkpt>
            <trkpt lon="12.9885484" lat="49.0518215">
                <ele>640.3754883</ele>
                <time>2008-07-12T16:37:44.000Z</time>
                <name>Position 73</name>
            </trkpt>
            <trkpt lon="12.9883641" lat="49.0519308">
                <ele>639.8947754</ele>
                <time>2008-07-12T16:37:59.000Z</time>
                <name>Position 74</name>
            </trkpt>
            <trkpt lon="12.9881807" lat="49.0520616">
                <ele>638.9335938</ele>
                <time>2008-07-12T16:38:17.000Z</time>
                <name>Position 75</name>
            </trkpt>
            <trkpt lon="12.9880773" lat="49.0521235">
                <ele>637.0107422</ele>
                <time>2008-07-12T16:38:26.000Z</time>
                <name>Position 76</name>
            </trkpt>
            <trkpt lon="12.9879507" lat="49.0522285">
                <ele>634.126709</ele>
                <time>2008-07-12T16:38:39.000Z</time>
                <name>Position 77</name>
            </trkpt>
            <trkpt lon="12.9878369" lat="49.0523359">
                <ele>631.7233887</ele>
                <time>2008-07-12T16:38:52.000Z</time>
                <name>Position 78</name>
            </trkpt>
            <trkpt lon="12.9877187" lat="49.0524895">
                <ele>629.3200684</ele>
                <time>2008-07-12T16:39:10.000Z</time>
                <name>Position 79</name>
            </trkpt>
            <trkpt lon="12.9876578" lat="49.052583">
                <ele>628.8395996</ele>
                <time>2008-07-12T16:39:20.000Z</time>
                <name>Position 80</name>
            </trkpt>
            <trkpt lon="12.9876171" lat="49.0526807">
                <ele>628.8395996</ele>
                <time>2008-07-12T16:39:30.000Z</time>
                <name>Position 81</name>
            </trkpt>
            <trkpt lon="12.9876326" lat="49.052779">
                <ele>631.7233887</ele>
                <time>2008-07-12T16:39:39.000Z</time>
                <name>Position 82</name>
            </trkpt>
            <trkpt lon="12.9876186" lat="49.0528692">
                <ele>634.126709</ele>
                <time>2008-07-12T16:39:48.000Z</time>
                <name>Position 83</name>
            </trkpt>
            <trkpt lon="12.9876067" lat="49.0530777">
                <ele>626.4362793</ele>
                <time>2008-07-12T16:40:02.000Z</time>
                <name>Position 84</name>
            </trkpt>
            <trkpt lon="12.9875746" lat="49.0531759">
                <ele>626.9169922</ele>
                <time>2008-07-12T16:40:13.000Z</time>
                <name>Position 85</name>
            </trkpt>
            <trkpt lon="12.9875168" lat="49.053383">
                <ele>629.8007813</ele>
                <time>2008-07-12T16:40:35.000Z</time>
                <name>Position 86</name>
            </trkpt>
            <trkpt lon="12.9873795" lat="49.0535756">
                <ele>626.4362793</ele>
                <time>2008-07-12T16:40:53.000Z</time>
                <name>Position 87</name>
            </trkpt>
            <trkpt lon="12.9872441" lat="49.0536837">
                <ele>624.032959</ele>
                <time>2008-07-12T16:41:06.000Z</time>
                <name>Position 88</name>
            </trkpt>
            <trkpt lon="12.9871604" lat="49.0537651">
                <ele>623.5524902</ele>
                <time>2008-07-12T16:41:17.000Z</time>
                <name>Position 89</name>
            </trkpt>
            <trkpt lon="12.986925" lat="49.0538397">
                <ele>625.9555664</ele>
                <time>2008-07-12T16:41:38.000Z</time>
                <name>Position 90</name>
            </trkpt>
            <trkpt lon="12.9867968" lat="49.0539008">
                <ele>621.1491699</ele>
                <time>2008-07-12T16:42:00.000Z</time>
                <name>Position 91</name>
            </trkpt>
            <trkpt lon="12.98673" lat="49.05409">
                <ele>603.8452148</ele>
                <time>2008-07-12T16:44:05.000Z</time>
                <name>Position 92</name>
            </trkpt>
            <trkpt lon="12.9867124" lat="49.0541915">
                <ele>602.4030762</ele>
                <time>2008-07-12T16:44:17.000Z</time>
                <name>Position 93</name>
            </trkpt>
            <trkpt lon="12.9866876" lat="49.0542874">
                <ele>600.9611816</ele>
                <time>2008-07-12T16:44:34.000Z</time>
                <name>Position 94</name>
            </trkpt>
            <trkpt lon="12.9866297" lat="49.0544278">
                <ele>601.9226074</ele>
                <time>2008-07-12T16:44:49.000Z</time>
                <name>Position 95</name>
            </trkpt>
            <trkpt lon="12.9865892" lat="49.0545272">
                <ele>603.364502</ele>
                <time>2008-07-12T16:45:04.000Z</time>
                <name>Position 96</name>
            </trkpt>
            <trkpt lon="12.9865546" lat="49.0546163">
                <ele>605.2873535</ele>
                <time>2008-07-12T16:45:21.000Z</time>
                <name>Position 97</name>
            </trkpt>
            <trkpt lon="12.9865327" lat="49.0547887">
                <ele>606.2485352</ele>
                <time>2008-07-12T16:45:44.000Z</time>
                <name>Position 98</name>
            </trkpt>
            <trkpt lon="12.9865217" lat="49.054898">
                <ele>601.4418945</ele>
                <time>2008-07-12T16:45:52.000Z</time>
                <name>Position 99</name>
            </trkpt>
            <trkpt lon="12.9864042" lat="49.0550329">
                <ele>601.9226074</ele>
                <time>2008-07-12T16:46:16.000Z</time>
                <name>Position 100</name>
            </trkpt>
            <trkpt lon="12.9863293" lat="49.0551141">
                <ele>602.4030762</ele>
                <time>2008-07-12T16:46:27.000Z</time>
                <name>Position 101</name>
            </trkpt>
            <trkpt lon="12.9862654" lat="49.0552575">
                <ele>602.4030762</ele>
                <time>2008-07-12T16:46:38.000Z</time>
                <name>Position 102</name>
            </trkpt>
            <trkpt lon="12.9861936" lat="49.0554617">
                <ele>604.3261719</ele>
                <time>2008-07-12T16:47:00.000Z</time>
                <name>Position 103</name>
            </trkpt>
            <trkpt lon="12.986165" lat="49.0555507">
                <ele>607.2099609</ele>
                <time>2008-07-12T16:47:11.000Z</time>
                <name>Position 104</name>
            </trkpt>
            <trkpt lon="12.9861921" lat="49.0556429">
                <ele>609.6132813</ele>
                <time>2008-07-12T16:47:22.000Z</time>
                <name>Position 105</name>
            </trkpt>
            <trkpt lon="12.9862837" lat="49.0559842">
                <ele>620.668457</ele>
                <time>2008-07-12T16:48:09.000Z</time>
                <name>Position 106</name>
            </trkpt>
            <trkpt lon="12.986314" lat="49.0561039">
                <ele>620.668457</ele>
                <time>2008-07-12T16:48:23.000Z</time>
                <name>Position 107</name>
            </trkpt>
            <trkpt lon="12.9863695" lat="49.0562487">
                <ele>629.3200684</ele>
                <time>2008-07-12T16:48:40.000Z</time>
                <name>Position 108</name>
            </trkpt>
            <trkpt lon="12.9864145" lat="49.0563489">
                <ele>637.0107422</ele>
                <time>2008-07-12T16:49:07.000Z</time>
                <name>Position 109</name>
            </trkpt>
            <trkpt lon="12.9865097" lat="49.0564246">
                <ele>638.4528809</ele>
                <time>2008-07-12T16:50:01.000Z</time>
                <name>Position 110</name>
            </trkpt>
            <trkpt lon="12.9866884" lat="49.0565141">
                <ele>646.1433105</ele>
                <time>2008-07-12T16:50:26.000Z</time>
                <name>Position 111</name>
            </trkpt>
            <trkpt lon="12.9867595" lat="49.0566501">
                <ele>651.9111328</ele>
                <time>2008-07-12T16:50:54.000Z</time>
                <name>Position 112</name>
            </trkpt>
            <trkpt lon="12.9867831" lat="49.0567654">
                <ele>654.3146973</ele>
                <time>2008-07-12T16:51:10.000Z</time>
                <name>Position 113</name>
            </trkpt>
            <trkpt lon="12.9867017" lat="49.0569007">
                <ele>654.3146973</ele>
                <time>2008-07-12T16:51:30.000Z</time>
                <name>Position 114</name>
            </trkpt>
            <trkpt lon="12.9866022" lat="49.0569791">
                <ele>654.3146973</ele>
                <time>2008-07-12T16:51:42.000Z</time>
                <name>Position 115</name>
            </trkpt>
            <trkpt lon="12.9865159" lat="49.0570537">
                <ele>655.2758789</ele>
                <time>2008-07-12T16:51:53.000Z</time>
                <name>Position 116</name>
            </trkpt>
            <trkpt lon="12.9863443" lat="49.057097">
                <ele>658.1599121</ele>
                <time>2008-07-12T16:52:33.000Z</time>
                <name>Position 117</name>
            </trkpt>
            <trkpt lon="12.9861937" lat="49.0571423">
                <ele>658.1599121</ele>
                <time>2008-07-12T16:52:45.000Z</time>
                <name>Position 118</name>
            </trkpt>
            <trkpt lon="12.9860496" lat="49.0571996">
                <ele>661.0437012</ele>
                <time>2008-07-12T16:53:03.000Z</time>
                <name>Position 119</name>
            </trkpt>
            <trkpt lon="12.9858722" lat="49.0572591">
                <ele>661.5244141</ele>
                <time>2008-07-12T16:53:15.000Z</time>
                <name>Position 120</name>
            </trkpt>
            <trkpt lon="12.9856725" lat="49.0572881">
                <ele>665.3696289</ele>
                <time>2008-07-12T16:53:27.000Z</time>
                <name>Position 121</name>
            </trkpt>
            <trkpt lon="12.9853983" lat="49.0573851">
                <ele>669.6958008</ele>
                <time>2008-07-12T16:53:50.000Z</time>
                <name>Position 122</name>
            </trkpt>
            <trkpt lon="12.9852086" lat="49.0574405">
                <ele>669.6958008</ele>
                <time>2008-07-12T16:54:04.000Z</time>
                <name>Position 123</name>
            </trkpt>
            <trkpt lon="12.9849887" lat="49.0575677">
                <ele>667.7727051</ele>
                <time>2008-07-12T16:54:24.000Z</time>
                <name>Position 124</name>
            </trkpt>
            <trkpt lon="12.9848477" lat="49.0576026">
                <ele>664.888916</ele>
                <time>2008-07-12T16:54:34.000Z</time>
                <name>Position 125</name>
            </trkpt>
            <trkpt lon="12.9847077" lat="49.0576453">
                <ele>664.888916</ele>
                <time>2008-07-12T16:54:45.000Z</time>
                <name>Position 126</name>
            </trkpt>
            <trkpt lon="12.9845665" lat="49.0576859">
                <ele>666.3308105</ele>
                <time>2008-07-12T16:54:56.000Z</time>
                <name>Position 127</name>
            </trkpt>
            <trkpt lon="12.9844137" lat="49.0577754">
                <ele>666.3308105</ele>
                <time>2008-07-12T16:55:07.000Z</time>
                <name>Position 128</name>
            </trkpt>
            <trkpt lon="12.9842357" lat="49.0578512">
                <ele>664.888916</ele>
                <time>2008-07-12T16:55:18.000Z</time>
                <name>Position 129</name>
            </trkpt>
            <trkpt lon="12.9841163" lat="49.0579099">
                <ele>663.4470215</ele>
                <time>2008-07-12T16:55:28.000Z</time>
                <name>Position 130</name>
            </trkpt>
            <trkpt lon="12.9840331" lat="49.0579843">
                <ele>663.9274902</ele>
                <time>2008-07-12T16:55:38.000Z</time>
                <name>Position 131</name>
            </trkpt>
            <trkpt lon="12.9839128" lat="49.0581371">
                <ele>665.3696289</ele>
                <time>2008-07-12T16:55:54.000Z</time>
                <name>Position 132</name>
            </trkpt>
            <trkpt lon="12.983946204185486" lat="49.05824655268205">
                <ele>671.1376953</ele>
                <time>2008-07-12T16:56:11.000Z</time>
                <name>Position 133</name>
            </trkpt>
            <trkpt lon="12.984005212783813" lat="49.058362556037764">
                <ele>670.1762695</ele>
                <time>2008-07-12T16:56:21.000Z</time>
                <name>Position 134</name>
            </trkpt>
            <trkpt lon="12.9840851" lat="49.0585035">
                <ele>670.1762695</ele>
                <time>2008-07-12T16:56:37.000Z</time>
                <name>Position 135</name>
            </trkpt>
            <trkpt lon="12.9839528" lat="49.0585895">
                <ele>674.5021973</ele>
                <time>2008-07-12T17:00:43.000Z</time>
                <name>Position 136</name>
            </trkpt>
            <trkpt lon="12.9838422" lat="49.0586673">
                <ele>673.0603027</ele>
                <time>2008-07-12T17:00:55.000Z</time>
                <name>Position 137</name>
            </trkpt>
            <trkpt lon="12.9836388" lat="49.0586235">
                <ele>669.6958008</ele>
                <time>2008-07-12T17:01:13.000Z</time>
                <name>Position 138</name>
            </trkpt>
            <trkpt lon="12.9833891" lat="49.0585765">
                <ele>661.5244141</ele>
                <time>2008-07-12T17:01:33.000Z</time>
                <name>Position 139</name>
            </trkpt>
            <trkpt lon="12.9831184" lat="49.05856">
                <ele>658.6403809</ele>
                <time>2008-07-12T17:01:56.000Z</time>
                <name>Position 140</name>
            </trkpt>
            <trkpt lon="12.9829137" lat="49.0585577">
                <ele>656.7177734</ele>
                <time>2008-07-12T17:02:18.000Z</time>
                <name>Position 141</name>
            </trkpt>
            <trkpt lon="12.9827765" lat="49.0585811">
                <ele>654.795166</ele>
                <time>2008-07-12T17:02:41.000Z</time>
                <name>Position 142</name>
            </trkpt>
            <trkpt lon="12.9827933" lat="49.0586876">
                <ele>652.3918457</ele>
                <time>2008-07-12T17:03:05.000Z</time>
                <name>Position 143</name>
            </trkpt>
            <trkpt lon="12.9826612" lat="49.0588548">
                <ele>659.1210938</ele>
                <time>2008-07-12T17:03:29.000Z</time>
                <name>Position 144</name>
            </trkpt>
            <trkpt lon="12.9825208" lat="49.0589505">
                <ele>664.4082031</ele>
                <time>2008-07-12T17:03:46.000Z</time>
                <name>Position 145</name>
            </trkpt>
            <trkpt lon="12.9823952" lat="49.05904">
                <ele>665.3696289</ele>
                <time>2008-07-12T17:04:04.000Z</time>
                <name>Position 146</name>
            </trkpt>
            <trkpt lon="12.9823048" lat="49.0591079">
                <ele>667.2922363</ele>
                <time>2008-07-12T17:04:16.000Z</time>
                <name>Position 147</name>
            </trkpt>
            <trkpt lon="12.982177" lat="49.0591467">
                <ele>668.2536621</ele>
                <time>2008-07-12T17:04:24.000Z</time>
                <name>Position 148</name>
            </trkpt>
            <trkpt lon="12.9819842" lat="49.0591961">
                <ele>668.2536621</ele>
                <time>2008-07-12T17:04:36.000Z</time>
                <name>Position 149</name>
            </trkpt>
            <trkpt lon="12.9818237" lat="49.0592379">
                <ele>667.2922363</ele>
                <time>2008-07-12T17:04:47.000Z</time>
                <name>Position 150</name>
            </trkpt>
            <trkpt lon="12.9816582" lat="49.0593472">
                <ele>663.9274902</ele>
                <time>2008-07-12T17:05:03.000Z</time>
                <name>Position 151</name>
            </trkpt>
            <trkpt lon="12.9815181" lat="49.0593986">
                <ele>663.9274902</ele>
                <time>2008-07-12T17:05:13.000Z</time>
                <name>Position 152</name>
            </trkpt>
            <trkpt lon="12.9812756" lat="49.0594694">
                <ele>662.005127</ele>
                <time>2008-07-12T17:05:32.000Z</time>
                <name>Position 153</name>
            </trkpt>
            <trkpt lon="12.981135" lat="49.0595211">
                <ele>661.0437012</ele>
                <time>2008-07-12T17:05:42.000Z</time>
                <name>Position 154</name>
            </trkpt>
            <trkpt lon="12.9809892" lat="49.0595648">
                <ele>660.0822754</ele>
                <time>2008-07-12T17:05:51.000Z</time>
                <name>Position 155</name>
            </trkpt>
            <trkpt lon="12.9808156" lat="49.0596254">
                <ele>657.1984863</ele>
                <time>2008-07-12T17:06:03.000Z</time>
                <name>Position 156</name>
            </trkpt>
            <trkpt lon="12.9807209" lat="49.0596906">
                <ele>656.2370605</ele>
                <time>2008-07-12T17:06:35.000Z</time>
                <name>Position 157</name>
            </trkpt>
            <trkpt lon="12.9805941" lat="49.0597189">
                <ele>653.8339844</ele>
                <time>2008-07-12T17:06:48.000Z</time>
                <name>Position 158</name>
            </trkpt>
            <trkpt lon="12.9804344" lat="49.0597202">
                <ele>651.4304199</ele>
                <time>2008-07-12T17:06:57.000Z</time>
                <name>Position 159</name>
            </trkpt>
            <trkpt lon="12.9802653" lat="49.0597346">
                <ele>650.4692383</ele>
                <time>2008-07-12T17:07:09.000Z</time>
                <name>Position 160</name>
            </trkpt>
            <trkpt lon="12.980126" lat="49.059802">
                <ele>651.9111328</ele>
                <time>2008-07-12T17:07:24.000Z</time>
                <name>Position 161</name>
            </trkpt>
            <trkpt lon="12.9799873" lat="49.0598517">
                <ele>653.3532715</ele>
                <time>2008-07-12T17:07:50.000Z</time>
                <name>Position 162</name>
            </trkpt>
            <trkpt lon="12.9797389" lat="49.0599152">
                <ele>645.1818848</ele>
                <time>2008-07-12T17:08:09.000Z</time>
                <name>Position 163</name>
            </trkpt>
            <trkpt lon="12.9795465" lat="49.0599741">
                <ele>641.3366699</ele>
                <time>2008-07-12T17:08:23.000Z</time>
                <name>Position 164</name>
            </trkpt>
            <trkpt lon="12.9793942" lat="49.0599877">
                <ele>639.4140625</ele>
                <time>2008-07-12T17:08:34.000Z</time>
                <name>Position 165</name>
            </trkpt>
            <trkpt lon="12.9791299" lat="49.060017">
                <ele>638.9335938</ele>
                <time>2008-07-12T17:09:00.000Z</time>
                <name>Position 166</name>
            </trkpt>
            <trkpt lon="12.9789685" lat="49.0600153">
                <ele>636.5302734</ele>
                <time>2008-07-12T17:09:17.000Z</time>
                <name>Position 167</name>
            </trkpt>
            <trkpt lon="12.9787928" lat="49.0600264">
                <ele>649.0270996</ele>
                <time>2008-07-12T17:09:33.000Z</time>
                <name>Position 168</name>
            </trkpt>
            <trkpt lon="12.9786504" lat="49.0600745">
                <ele>654.3146973</ele>
                <time>2008-07-12T17:09:51.000Z</time>
                <name>Position 169</name>
            </trkpt>
            <trkpt lon="12.9785221" lat="49.0601461">
                <ele>662.9663086</ele>
                <time>2008-07-12T17:10:10.000Z</time>
                <name>Position 170</name>
            </trkpt>
            <trkpt lon="12.9783623" lat="49.0601984">
                <ele>667.7727051</ele>
                <time>2008-07-12T17:10:25.000Z</time>
                <name>Position 171</name>
            </trkpt>
            <trkpt lon="12.9782282" lat="49.060249">
                <ele>671.6181641</ele>
                <time>2008-07-12T17:10:35.000Z</time>
                <name>Position 172</name>
            </trkpt>
            <trkpt lon="12.9780341" lat="49.060339">
                <ele>675.4633789</ele>
                <time>2008-07-12T17:11:01.000Z</time>
                <name>Position 173</name>
            </trkpt>
            <trkpt lon="12.9779064" lat="49.0604192">
                <ele>678.3474121</ele>
                <time>2008-07-12T17:11:13.000Z</time>
                <name>Position 174</name>
            </trkpt>
            <trkpt lon="12.9777885" lat="49.0604764">
                <ele>680.2700195</ele>
                <time>2008-07-12T17:11:23.000Z</time>
                <name>Position 175</name>
            </trkpt>
            <trkpt lon="12.9777004" lat="49.0605479">
                <ele>682.6733398</ele>
                <time>2008-07-12T17:11:32.000Z</time>
                <name>Position 176</name>
            </trkpt>
            <trkpt lon="12.977563" lat="49.0605831">
                <ele>685.0769043</ele>
                <time>2008-07-12T17:11:42.000Z</time>
                <name>Position 177</name>
            </trkpt>
            <trkpt lon="12.9774206" lat="49.0606319">
                <ele>686.5187988</ele>
                <time>2008-07-12T17:11:52.000Z</time>
                <name>Position 178</name>
            </trkpt>
            <trkpt lon="12.9772651" lat="49.060661">
                <ele>686.5187988</ele>
                <time>2008-07-12T17:12:03.000Z</time>
                <name>Position 179</name>
            </trkpt>
            <trkpt lon="12.9770797" lat="49.0606971">
                <ele>683.6345215</ele>
                <time>2008-07-12T17:12:15.000Z</time>
                <name>Position 180</name>
            </trkpt>
            <trkpt lon="12.9768862" lat="49.0607816">
                <ele>679.7893066</ele>
                <time>2008-07-12T17:12:29.000Z</time>
                <name>Position 181</name>
            </trkpt>
            <trkpt lon="12.9767498" lat="49.0608089">
                <ele>674.0214844</ele>
                <time>2008-07-12T17:12:38.000Z</time>
                <name>Position 182</name>
            </trkpt>
            <trkpt lon="12.9766144" lat="49.0608637">
                <ele>669.2150879</ele>
                <time>2008-07-12T17:12:49.000Z</time>
                <name>Position 183</name>
            </trkpt>
            <trkpt lon="12.9764359" lat="49.0609262">
                <ele>663.9274902</ele>
                <time>2008-07-12T17:13:03.000Z</time>
                <name>Position 184</name>
            </trkpt>
            <trkpt lon="12.9762239" lat="49.0610128">
                <ele>657.6791992</ele>
                <time>2008-07-12T17:13:25.000Z</time>
                <name>Position 185</name>
            </trkpt>
            <trkpt lon="12.9760858" lat="49.0610365">
                <ele>654.3146973</ele>
                <time>2008-07-12T17:13:38.000Z</time>
                <name>Position 186</name>
            </trkpt>
            <trkpt lon="12.9758569" lat="49.061074">
                <ele>646.1433105</ele>
                <time>2008-07-12T17:13:58.000Z</time>
                <name>Position 187</name>
            </trkpt>
            <trkpt lon="12.9756873" lat="49.0611449">
                <ele>643.2592773</ele>
                <time>2008-07-12T17:14:15.000Z</time>
                <name>Position 188</name>
            </trkpt>
            <trkpt lon="12.9755459" lat="49.0611642">
                <ele>641.3366699</ele>
                <time>2008-07-12T17:14:26.000Z</time>
                <name>Position 189</name>
            </trkpt>
            <trkpt lon="12.9754112" lat="49.0611832">
                <ele>637.972168</ele>
                <time>2008-07-12T17:14:37.000Z</time>
                <name>Position 190</name>
            </trkpt>
            <trkpt lon="12.9752504" lat="49.0612059">
                <ele>634.126709</ele>
                <time>2008-07-12T17:14:49.000Z</time>
                <name>Position 191</name>
            </trkpt>
            <trkpt lon="12.9750486" lat="49.0611886">
                <ele>630.762207</ele>
                <time>2008-07-12T17:15:01.000Z</time>
                <name>Position 192</name>
            </trkpt>
            <trkpt lon="12.9747699" lat="49.0611308">
                <ele>622.5910645</ele>
                <time>2008-07-12T17:15:22.000Z</time>
                <name>Position 193</name>
            </trkpt>
            <trkpt lon="12.9746178" lat="49.0610727">
                <ele>618.7456055</ele>
                <time>2008-07-12T17:15:34.000Z</time>
                <name>Position 194</name>
            </trkpt>
            <trkpt lon="12.9744978" lat="49.0609649">
                <ele>615.3811035</ele>
                <time>2008-07-12T17:15:47.000Z</time>
                <name>Position 195</name>
            </trkpt>
            <trkpt lon="12.9743897" lat="49.0608903">
                <ele>613.4584961</ele>
                <time>2008-07-12T17:15:57.000Z</time>
                <name>Position 196</name>
            </trkpt>
            <trkpt lon="12.9743048" lat="49.0607728">
                <ele>610.09375</ele>
                <time>2008-07-12T17:16:13.000Z</time>
                <name>Position 197</name>
            </trkpt>
            <trkpt lon="12.9741546" lat="49.0605785">
                <ele>609.6132813</ele>
                <time>2008-07-12T17:16:33.000Z</time>
                <name>Position 198</name>
            </trkpt>
            <trkpt lon="12.9740038" lat="49.0605402">
                <ele>613.4584961</ele>
                <time>2008-07-12T17:16:45.000Z</time>
                <name>Position 199</name>
            </trkpt>
            <trkpt lon="12.973869" lat="49.0605343">
                <ele>612.9777832</ele>
                <time>2008-07-12T17:16:52.000Z</time>
                <name>Position 200</name>
            </trkpt>
            <trkpt lon="12.9736024" lat="49.0606085">
                <ele>609.1325684</ele>
                <time>2008-07-12T17:17:10.000Z</time>
                <name>Position 201</name>
            </trkpt>
            <trkpt lon="12.9733377" lat="49.0607262">
                <ele>598.5578613</ele>
                <time>2008-07-12T17:17:28.000Z</time>
                <name>Position 202</name>
            </trkpt>
            <trkpt lon="12.9730584" lat="49.0608081">
                <ele>596.635498</ele>
                <time>2008-07-12T17:17:46.000Z</time>
                <name>Position 203</name>
            </trkpt>
            <trkpt lon="12.9729176" lat="49.0608706">
                <ele>593.270752</ele>
                <time>2008-07-12T17:18:04.000Z</time>
                <name>Position 204</name>
            </trkpt>
            <trkpt lon="12.9727276" lat="49.06092">
                <ele>590.8674316</ele>
                <time>2008-07-12T17:18:16.000Z</time>
                <name>Position 205</name>
            </trkpt>
            <trkpt lon="12.9725242" lat="49.0610061">
                <ele>585.0996094</ele>
                <time>2008-07-12T17:18:36.000Z</time>
                <name>Position 206</name>
            </trkpt>
            <trkpt lon="12.9723741" lat="49.0610142">
                <ele>582.2155762</ele>
                <time>2008-07-12T17:18:50.000Z</time>
                <name>Position 207</name>
            </trkpt>
            <trkpt lon="12.97214" lat="49.0609314">
                <ele>580.2929688</ele>
                <time>2008-07-12T17:19:13.000Z</time>
                <name>Position 208</name>
            </trkpt>
            <trkpt lon="12.9720811" lat="49.0607546">
                <ele>585.0996094</ele>
                <time>2008-07-12T17:19:28.000Z</time>
                <name>Position 209</name>
            </trkpt>
            <trkpt lon="12.9720174" lat="49.0606614">
                <ele>587.9833984</ele>
                <time>2008-07-12T17:19:39.000Z</time>
                <name>Position 210</name>
            </trkpt>
            <trkpt lon="12.9719564" lat="49.0605216">
                <ele>587.9833984</ele>
                <time>2008-07-12T17:19:57.000Z</time>
                <name>Position 211</name>
            </trkpt>
            <trkpt lon="12.9719449" lat="49.0604184">
                <ele>586.5415039</ele>
                <time>2008-07-12T17:20:09.000Z</time>
                <name>Position 212</name>
            </trkpt>
            <trkpt lon="12.9719462" lat="49.0602325">
                <ele>582.2155762</ele>
                <time>2008-07-12T17:20:28.000Z</time>
                <name>Position 213</name>
            </trkpt>
            <trkpt lon="12.9719744" lat="49.0601143">
                <ele>582.2155762</ele>
                <time>2008-07-12T17:20:40.000Z</time>
                <name>Position 214</name>
            </trkpt>
            <trkpt lon="12.9720126" lat="49.0599568">
                <ele>581.7348633</ele>
                <time>2008-07-12T17:21:02.000Z</time>
                <name>Position 215</name>
            </trkpt>
            <trkpt lon="12.9720219" lat="49.0598458">
                <ele>579.8122559</ele>
                <time>2008-07-12T17:21:13.000Z</time>
                <name>Position 216</name>
            </trkpt>
            <trkpt lon="12.9720675" lat="49.0597156">
                <ele>580.7736816</ele>
                <time>2008-07-12T17:21:27.000Z</time>
                <name>Position 217</name>
            </trkpt>
            <trkpt lon="12.972083" lat="49.0595876">
                <ele>582.2155762</ele>
                <time>2008-07-12T17:21:38.000Z</time>
                <name>Position 218</name>
            </trkpt>
            <trkpt lon="12.9721018" lat="49.0594829">
                <ele>584.6188965</ele>
                <time>2008-07-12T17:21:48.000Z</time>
                <name>Position 219</name>
            </trkpt>
            <trkpt lon="12.9721611" lat="49.059338">
                <ele>584.1381836</ele>
                <time>2008-07-12T17:22:07.000Z</time>
                <name>Position 220</name>
            </trkpt>
            <trkpt lon="12.9721835" lat="49.0591135">
                <ele>580.2929688</ele>
                <time>2008-07-12T17:22:31.000Z</time>
                <name>Position 221</name>
            </trkpt>
            <trkpt lon="12.9721426" lat="49.0590277">
                <ele>585.0996094</ele>
                <time>2008-07-12T17:22:56.000Z</time>
                <name>Position 222</name>
            </trkpt>
            <trkpt lon="12.9722307" lat="49.0589415">
                <ele>587.9833984</ele>
                <time>2008-07-12T17:23:08.000Z</time>
                <name>Position 223</name>
            </trkpt>
            <trkpt lon="12.9724306" lat="49.0588715">
                <ele>589.4255371</ele>
                <time>2008-07-12T17:23:21.000Z</time>
                <name>Position 224</name>
            </trkpt>
            <trkpt lon="12.9725569" lat="49.0588169">
                <ele>589.4255371</ele>
                <time>2008-07-12T17:23:31.000Z</time>
                <name>Position 225</name>
            </trkpt>
            <trkpt lon="12.9727841" lat="49.0586895">
                <ele>587.9833984</ele>
                <time>2008-07-12T17:23:48.000Z</time>
                <name>Position 226</name>
            </trkpt>
            <trkpt lon="12.9731304" lat="49.058546">
                <ele>583.1767578</ele>
                <time>2008-07-12T17:24:08.000Z</time>
                <name>Position 227</name>
            </trkpt>
            <trkpt lon="12.9732708" lat="49.0584795">
                <ele>584.1381836</ele>
                <time>2008-07-12T17:24:16.000Z</time>
                <name>Position 228</name>
            </trkpt>
            <trkpt lon="12.9735645" lat="49.058439">
                <ele>580.7736816</ele>
                <time>2008-07-12T17:24:33.000Z</time>
                <name>Position 229</name>
            </trkpt>
            <trkpt lon="12.973764538764954" lat="49.058373101783936">
                <ele>580.7736816</ele>
                <time>2008-07-12T17:24:46.000Z</time>
                <name>Position 230</name>
            </trkpt>
            <trkpt lon="12.974059581756592" lat="49.05834146453867">
                <ele>584.1381836</ele>
                <time>2008-07-12T17:25:01.000Z</time>
                <name>Position 231</name>
            </trkpt>
            <trkpt lon="12.974268794059753" lat="49.05831334252596">
                <ele>584.1381836</ele>
                <time>2008-07-12T17:25:12.000Z</time>
                <name>Position 232</name>
            </trkpt>
            <trkpt lon="12.9744902" lat="49.0582773">
                <ele>584.1381836</ele>
                <time>2008-07-12T17:25:25.000Z</time>
                <name>Position 233</name>
            </trkpt>
            <trkpt lon="12.9746189" lat="49.0582301">
                <ele>586.060791</ele>
                <time>2008-07-12T17:25:34.000Z</time>
                <name>Position 234</name>
            </trkpt>
            <trkpt lon="12.9749469" lat="49.058196">
                <ele>587.5026855</ele>
                <time>2008-07-12T17:25:51.000Z</time>
                <name>Position 235</name>
            </trkpt>
            <trkpt lon="12.9751752" lat="49.0581553">
                <ele>587.0219727</ele>
                <time>2008-07-12T17:26:05.000Z</time>
                <name>Position 236</name>
            </trkpt>
            <trkpt lon="12.9754445" lat="49.0581097">
                <ele>592.3095703</ele>
                <time>2008-07-12T17:26:18.000Z</time>
                <name>Position 237</name>
            </trkpt>
            <trkpt lon="12.9756259" lat="49.0580955">
                <ele>593.7514648</ele>
                <time>2008-07-12T17:26:29.000Z</time>
                <name>Position 238</name>
            </trkpt>
            <trkpt lon="12.9757983" lat="49.0580873">
                <ele>594.2321777</ele>
                <time>2008-07-12T17:26:39.000Z</time>
                <name>Position 239</name>
            </trkpt>
            <trkpt lon="12.9759829" lat="49.0581073">
                <ele>591.3481445</ele>
                <time>2008-07-12T17:26:52.000Z</time>
                <name>Position 240</name>
            </trkpt>
            <trkpt lon="12.9762153" lat="49.0580983">
                <ele>589.4255371</ele>
                <time>2008-07-12T17:27:03.000Z</time>
                <name>Position 241</name>
            </trkpt>
            <trkpt lon="12.9763512" lat="49.0580844">
                <ele>590.8674316</ele>
                <time>2008-07-12T17:27:13.000Z</time>
                <name>Position 242</name>
            </trkpt>
            <trkpt lon="12.9766063" lat="49.0580421">
                <ele>591.3481445</ele>
                <time>2008-07-12T17:27:28.000Z</time>
                <name>Position 243</name>
            </trkpt>
            <trkpt lon="12.9768965" lat="49.0580282">
                <ele>587.5026855</ele>
                <time>2008-07-12T17:27:43.000Z</time>
                <name>Position 244</name>
            </trkpt>
            <trkpt lon="12.9770851" lat="49.0580162">
                <ele>587.0219727</ele>
                <time>2008-07-12T17:27:51.000Z</time>
                <name>Position 245</name>
            </trkpt>
            <trkpt lon="12.9772766" lat="49.0579711">
                <ele>594.7126465</ele>
                <time>2008-07-12T17:28:01.000Z</time>
                <name>Position 246</name>
            </trkpt>
            <trkpt lon="12.9776181" lat="49.0579417">
                <ele>600.4807129</ele>
                <time>2008-07-12T17:28:17.000Z</time>
                <name>Position 247</name>
            </trkpt>
            <trkpt lon="12.977769" lat="49.0579517">
                <ele>599.0385742</ele>
                <time>2008-07-12T17:28:26.000Z</time>
                <name>Position 248</name>
            </trkpt>
            <trkpt lon="12.9779863" lat="49.0579475">
                <ele>593.270752</ele>
                <time>2008-07-12T17:28:41.000Z</time>
                <name>Position 249</name>
            </trkpt>
            <trkpt lon="12.9782699" lat="49.0578763">
                <ele>581.7348633</ele>
                <time>2008-07-12T17:29:06.000Z</time>
                <name>Position 250</name>
            </trkpt>
            <trkpt lon="12.9784262" lat="49.0578128">
                <ele>581.2543945</ele>
                <time>2008-07-12T17:29:15.000Z</time>
                <name>Position 251</name>
            </trkpt>
            <trkpt lon="12.9785322" lat="49.0577457">
                <ele>581.2543945</ele>
                <time>2008-07-12T17:29:23.000Z</time>
                <name>Position 252</name>
            </trkpt>
            <trkpt lon="12.9787447" lat="49.0576481">
                <ele>579.331543</ele>
                <time>2008-07-12T17:29:38.000Z</time>
                <name>Position 253</name>
            </trkpt>
            <trkpt lon="12.97885000705719" lat="49.057585679915135">
                <ele>575.967041</ele>
                <time>2008-07-12T17:29:50.000Z</time>
                <name>Position 254</name>
            </trkpt>
            <trkpt lon="12.979010939598083" lat="49.05751185847538">
                <ele>573.5639648</ele>
                <time>2008-07-12T17:29:58.000Z</time>
                <name>Position 255</name>
            </trkpt>
            <trkpt lon="12.979187965393066" lat="49.0574731900584">
                <ele>575.0058594</ele>
                <time>2008-07-12T17:30:12.000Z</time>
                <name>Position 256</name>
            </trkpt>
            <trkpt lon="12.9795461" lat="49.057377">
                <ele>588.4643555</ele>
                <time>2008-07-12T17:30:29.000Z</time>
                <name>Position 257</name>
            </trkpt>
            <trkpt lon="12.9797527" lat="49.0572501">
                <ele>596.635498</ele>
                <time>2008-07-12T17:30:47.000Z</time>
                <name>Position 258</name>
            </trkpt>
            <trkpt lon="12.9798655" lat="49.0571729">
                <ele>600.4807129</ele>
                <time>2008-07-12T17:30:57.000Z</time>
                <name>Position 259</name>
            </trkpt>
            <trkpt lon="12.9799614" lat="49.0570675">
                <ele>603.364502</ele>
                <time>2008-07-12T17:31:07.000Z</time>
                <name>Position 260</name>
            </trkpt>
            <trkpt lon="12.9799627" lat="49.0569363">
                <ele>604.3261719</ele>
                <time>2008-07-12T17:31:24.000Z</time>
                <name>Position 261</name>
            </trkpt>
            <trkpt lon="12.9798682" lat="49.0567642">
                <ele>599.0385742</ele>
                <time>2008-07-12T17:31:46.000Z</time>
                <name>Position 262</name>
            </trkpt>
            <trkpt lon="12.9798268" lat="49.0566749">
                <ele>597.5966797</ele>
                <time>2008-07-12T17:31:53.000Z</time>
                <name>Position 263</name>
            </trkpt>
            <trkpt lon="12.9797594" lat="49.0565593">
                <ele>594.2321777</ele>
                <time>2008-07-12T17:32:06.000Z</time>
                <name>Position 264</name>
            </trkpt>
            <trkpt lon="12.979605" lat="49.0565185">
                <ele>589.4255371</ele>
                <time>2008-07-12T17:32:18.000Z</time>
                <name>Position 265</name>
            </trkpt>
            <trkpt lon="12.9795077" lat="49.056451">
                <ele>586.5415039</ele>
                <time>2008-07-12T17:32:26.000Z</time>
                <name>Position 266</name>
            </trkpt>
            <trkpt lon="12.9793773" lat="49.0563842">
                <ele>578.3703613</ele>
                <time>2008-07-12T17:32:52.000Z</time>
                <name>Position 267</name>
            </trkpt>
            <trkpt lon="12.9792157" lat="49.0563192">
                <ele>573.5639648</ele>
                <time>2008-07-12T17:33:06.000Z</time>
                <name>Position 268</name>
            </trkpt>
            <trkpt lon="12.9791006" lat="49.0562344">
                <ele>570.6796875</ele>
                <time>2008-07-12T17:33:16.000Z</time>
                <name>Position 269</name>
            </trkpt>
            <trkpt lon="12.9789575" lat="49.0560704">
                <ele>570.1989746</ele>
                <time>2008-07-12T17:33:36.000Z</time>
                <name>Position 270</name>
            </trkpt>
            <trkpt lon="12.9788624" lat="49.0559564">
                <ele>565.873291</ele>
                <time>2008-07-12T17:33:54.000Z</time>
                <name>Position 271</name>
            </trkpt>
            <trkpt lon="12.9787626" lat="49.0557587">
                <ele>559.144043</ele>
                <time>2008-07-12T17:34:20.000Z</time>
                <name>Position 272</name>
            </trkpt>
            <trkpt lon="12.978746" lat="49.0556358">
                <ele>556.7407227</ele>
                <time>2008-07-12T17:34:33.000Z</time>
                <name>Position 273</name>
            </trkpt>
            <trkpt lon="12.9787031" lat="49.0555317">
                <ele>554.8178711</ele>
                <time>2008-07-12T17:34:43.000Z</time>
                <name>Position 274</name>
            </trkpt>
            <trkpt lon="12.97861" lat="49.0554191">
                <ele>552.4145508</ele>
                <time>2008-07-12T17:34:57.000Z</time>
                <name>Position 275</name>
            </trkpt>
            <trkpt lon="12.9785711" lat="49.0552917">
                <ele>553.3759766</ele>
                <time>2008-07-12T17:35:05.000Z</time>
                <name>Position 276</name>
            </trkpt>
            <trkpt lon="12.9785118" lat="49.055161">
                <ele>550.9726563</ele>
                <time>2008-07-12T17:35:16.000Z</time>
                <name>Position 277</name>
            </trkpt>
            <trkpt lon="12.9785369" lat="49.0550647">
                <ele>549.0500488</ele>
                <time>2008-07-12T17:35:26.000Z</time>
                <name>Position 278</name>
            </trkpt>
            <trkpt lon="12.9785492" lat="49.054929">
                <ele>544.2436523</ele>
                <time>2008-07-12T17:35:45.000Z</time>
                <name>Position 279</name>
            </trkpt>
            <trkpt lon="12.9785742" lat="49.0548349">
                <ele>542.3209229</ele>
                <time>2008-07-12T17:35:51.000Z</time>
                <name>Position 280</name>
            </trkpt>
            <trkpt lon="12.9786158" lat="49.0546274">
                <ele>534.6303711</ele>
                <time>2008-07-12T17:36:08.000Z</time>
                <name>Position 281</name>
            </trkpt>
            <trkpt lon="12.9786516" lat="49.0544851">
                <ele>537.0336914</ele>
                <time>2008-07-12T17:36:21.000Z</time>
                <name>Position 282</name>
            </trkpt>
            <trkpt lon="12.9787201" lat="49.0543724">
                <ele>538.9562988</ele>
                <time>2008-07-12T17:36:33.000Z</time>
                <name>Position 283</name>
            </trkpt>
            <trkpt lon="12.9788342" lat="49.0542576">
                <ele>542.3209229</ele>
                <time>2008-07-12T17:36:45.000Z</time>
                <name>Position 284</name>
            </trkpt>
            <trkpt lon="12.9789679" lat="49.0541469">
                <ele>545.204834</ele>
                <time>2008-07-12T17:36:57.000Z</time>
                <name>Position 285</name>
            </trkpt>
            <trkpt lon="12.9790895" lat="49.0539433">
                <ele>547.6081543</ele>
                <time>2008-07-12T17:37:17.000Z</time>
                <name>Position 286</name>
            </trkpt>
            <trkpt lon="12.9791903" lat="49.0536652">
                <ele>548.5693359</ele>
                <time>2008-07-12T17:37:40.000Z</time>
                <name>Position 287</name>
            </trkpt>
            <trkpt lon="12.9792414" lat="49.0535635">
                <ele>548.5693359</ele>
                <time>2008-07-12T17:37:49.000Z</time>
                <name>Position 288</name>
            </trkpt>
            <trkpt lon="12.9793528" lat="49.0534141">
                <ele>551.4533691</ele>
                <time>2008-07-12T17:38:00.000Z</time>
                <name>Position 289</name>
            </trkpt>
            <trkpt lon="12.9795168" lat="49.0532882">
                <ele>552.4145508</ele>
                <time>2008-07-12T17:38:16.000Z</time>
                <name>Position 290</name>
            </trkpt>
            <trkpt lon="12.9796742" lat="49.0532124">
                <ele>554.3374023</ele>
                <time>2008-07-12T17:38:26.000Z</time>
                <name>Position 291</name>
            </trkpt>
            <trkpt lon="12.9797827" lat="49.0531145">
                <ele>557.2214355</ele>
                <time>2008-07-12T17:38:35.000Z</time>
                <name>Position 292</name>
            </trkpt>
            <trkpt lon="12.9799006" lat="49.0530611">
                <ele>561.0666504</ele>
                <time>2008-07-12T17:38:45.000Z</time>
                <name>Position 293</name>
            </trkpt>
            <trkpt lon="12.9800099" lat="49.0529917">
                <ele>563.9504395</ele>
                <time>2008-07-12T17:38:55.000Z</time>
                <name>Position 294</name>
            </trkpt>
            <trkpt lon="12.980169653892517" lat="49.05294174635171">
                <ele>565.873291</ele>
                <time>2008-07-12T17:39:05.000Z</time>
                <name>Position 295</name>
            </trkpt>
            <trkpt lon="12.98034131526947" lat="49.05287494929002">
                <ele>566.3537598</ele>
                <time>2008-07-12T17:39:16.000Z</time>
                <name>Position 296</name>
            </trkpt>
            <trkpt lon="12.9804854" lat="49.0528036">
                <ele>564.4311523</ele>
                <time>2008-07-12T17:39:25.000Z</time>
                <name>Position 297</name>
            </trkpt>
            <trkpt lon="12.98058271408081" lat="49.052772995707016">
                <ele>562.0280762</ele>
                <time>2008-07-12T17:39:36.000Z</time>
                <name>Position 298</name>
            </trkpt>
            <trkpt lon="12.980448603630066" lat="49.05263236973218">
                <ele>561.5473633</ele>
                <time>2008-07-12T17:39:45.000Z</time>
                <name>Position 299</name>
            </trkpt>
            <trkpt lon="12.9802971" lat="49.0524933">
                <ele>556.7407227</ele>
                <time>2008-07-12T17:40:03.000Z</time>
                <name>Position 300</name>
            </trkpt>
            <trkpt lon="12.980211" lat="49.05241">
                <ele>554.3374023</ele>
                <time>2008-07-12T17:40:11.000Z</time>
                <name>Position 301</name>
            </trkpt>
            <trkpt lon="12.98007845878601" lat="49.05231244415757">
                <ele>556.7407227</ele>
                <time>2008-07-12T17:40:20.000Z</time>
                <name>Position 302</name>
            </trkpt>
            <trkpt lon="12.979933619499207" lat="49.05222103647239">
                <ele>560.5859375</ele>
                <time>2008-07-12T17:40:33.000Z</time>
                <name>Position 303</name>
            </trkpt>
            <trkpt lon="12.979815602302551" lat="49.05212962861915">
                <ele>561.0666504</ele>
                <time>2008-07-12T17:40:42.000Z</time>
                <name>Position 304</name>
            </trkpt>
            <trkpt lon="12.9797216" lat="49.0520498">
                <ele>559.6247559</ele>
                <time>2008-07-12T17:40:54.000Z</time>
                <name>Position 305</name>
            </trkpt>
            <trkpt lon="12.9795841" lat="49.0519185">
                <ele>554.8178711</ele>
                <time>2008-07-12T17:41:10.000Z</time>
                <name>Position 306</name>
            </trkpt>
            <trkpt lon="12.979466915130615" lat="49.051795636957216">
                <ele>550.4921875</ele>
                <time>2008-07-12T17:41:20.000Z</time>
                <name>Position 307</name>
            </trkpt>
            <trkpt lon="12.979429364204407" lat="49.051718291199734">
                <ele>551.4533691</ele>
                <time>2008-07-12T17:41:28.000Z</time>
                <name>Position 308</name>
            </trkpt>
            <trkpt lon="12.97936499118805" lat="49.05159875661059">
                <ele>547.6081543</ele>
                <time>2008-07-12T17:41:38.000Z</time>
                <name>Position 309</name>
            </trkpt>
            <trkpt lon="12.979268431663513" lat="49.051408906966515">
                <ele>543.2821045</ele>
                <time>2008-07-12T17:41:55.000Z</time>
                <name>Position 310</name>
            </trkpt>
            <trkpt lon="12.979198694229126" lat="49.051328044860924">
                <ele>539.9176025</ele>
                <time>2008-07-12T17:42:04.000Z</time>
                <name>Position 311</name>
            </trkpt>
            <trkpt lon="12.979139685630798" lat="49.051240151118705">
                <ele>536.5531006</ele>
                <time>2008-07-12T17:42:12.000Z</time>
                <name>Position 312</name>
            </trkpt>
            <trkpt lon="12.9791023" lat="49.0511494">
                <ele>532.7077637</ele>
                <time>2008-07-12T17:42:23.000Z</time>
                <name>Position 313</name>
            </trkpt>
            <trkpt lon="12.9790238" lat="49.0509904">
                <ele>527.901001</ele>
                <time>2008-07-12T17:42:40.000Z</time>
                <name>Position 314</name>
            </trkpt>
            <trkpt lon="12.9790021" lat="49.0508734">
                <ele>525.4978027</ele>
                <time>2008-07-12T17:42:47.000Z</time>
                <name>Position 315</name>
            </trkpt>
            <trkpt lon="12.9790041" lat="49.0507712">
                <ele>525.0172119</ele>
                <time>2008-07-12T17:43:11.000Z</time>
                <name>Position 316</name>
            </trkpt>
            <trkpt lon="12.9790319" lat="49.050564">
                <ele>524.0557861</ele>
                <time>2008-07-12T17:43:25.000Z</time>
                <name>Position 317</name>
            </trkpt>
            <trkpt lon="12.9791013" lat="49.0504106">
                <ele>521.6525879</ele>
                <time>2008-07-12T17:43:31.000Z</time>
                <name>Position 318</name>
            </trkpt>
            <trkpt lon="12.9791134" lat="49.0502965">
                <ele>518.2878418</ele>
                <time>2008-07-12T17:43:43.000Z</time>
                <name>Position 319</name>
            </trkpt>
            <trkpt lon="12.979139685630798" lat="49.050104549996455">
                <ele>515.8846436</ele>
                <time>2008-07-12T17:43:59.000Z</time>
                <name>Position 320</name>
            </trkpt>
            <trkpt lon="12.979177236557007" lat="49.049907662953004">
                <ele>512.0394287</ele>
                <time>2008-07-12T17:44:14.000Z</time>
                <name>Position 321</name>
            </trkpt>
            <trkpt lon="12.979209423065186" lat="49.049658037187704">
                <ele>512.5200195</ele>
                <time>2008-07-12T17:44:36.000Z</time>
                <name>Position 322</name>
            </trkpt>
            <trkpt lon="12.979241609573364" lat="49.0495209182763">
                <ele>511.0780029</ele>
                <time>2008-07-12T17:44:47.000Z</time>
                <name>Position 323</name>
            </trkpt>
            <trkpt lon="12.979257702827454" lat="49.049380283102536">
                <ele>507.2327881</ele>
                <time>2008-07-12T17:45:00.000Z</time>
                <name>Position 324</name>
            </trkpt>
        </trkseg>
    </trk>
</gpx>
